sensor_id;sensor_type;location;lat;lon;timestamp;pressure;altitude;pressure_sealevel;temperature;humidity
84918;BME280;75182;51.736;5.318;2024-03-23T01:01:27;101135.97;;;15.93;51.98
84918;BME280;75182;51.736;5.318;2024-03-23T01:11:27;101117.09;;;15.87;52.69
84918;BME280;75182;51.736;5.318;2024-03-23T01:21:28;101098.22;;;15.84;53.18
84918;BME280;75182;51.736;5.318;2024-03-23T01:31:28;101100.94;;;15.82;53.45
84918;BME280;75182;51.736;5.318;2024-03-23T01:41:28;101106.34;;;15.82;52.58
84918;BME280;75182;51.736;5.318;2024-03-23T01:51:29;101091.03;;;15.81;51.95
84918;BME280;75182;51.736;5.318;2024-03-23T02:01:29;101082.03;;;15.81;50.48
84918;BME280;75182;51.736;5.318;2024-03-23T02:11:30;101072.16;;;15.75;51.72
84918;BME280;75182;51.736;5.318;2024-03-23T02:21:30;101068.59;;;15.73;51.49
84918;BME280;75182;51.736;5.318;2024-03-23T02:31:32;101057.78;;;15.70;51.82
84918;BME280;75182;51.736;5.318;2024-03-23T02:41:32;101063.22;;;15.67;51.84
84918;BME280;75182;51.736;5.318;2024-03-23T02:51:32;101064.16;;;15.64;51.39
84918;BME280;75182;51.736;5.318;2024-03-23T03:01:32;101062.34;;;15.63;50.02
84918;BME280;75182;51.736;5.318;2024-03-23T03:11:33;101068.66;;;15.59;50.80
84918;BME280;75182;51.736;5.318;2024-03-23T03:21:33;101068.69;;;15.56;50.49
84918;BME280;75182;51.736;5.318;2024-03-23T03:31:33;101058.78;;;15.54;50.00
84918;BME280;75182;51.736;5.318;2024-03-23T03:41:34;101057.94;;;15.50;50.17
84918;BME280;75182;51.736;5.318;2024-03-23T03:51:34;101053.47;;;15.48;50.20
84918;BME280;75182;51.736;5.318;2024-03-23T04:01:34;101043.56;;;15.43;49.39
84918;BME280;75182;51.736;5.318;2024-03-23T04:11:35;101039.13;;;15.39;49.86
84918;BME280;75182;51.736;5.318;2024-03-23T04:21:37;101031.03;;;15.36;49.97
84918;BME280;75182;51.736;5.318;2024-03-23T04:31:37;101038.25;;;15.34;49.56
84918;BME280;75182;51.736;5.318;2024-03-23T04:41:38;101037.34;;;15.31;50.29
84918;BME280;75182;51.736;5.318;2024-03-23T04:51:38;101032.88;;;15.28;50.14
84918;BME280;75182;51.736;5.318;2024-03-23T05:01:38;101017.63;;;15.26;50.22
84918;BME280;75182;51.736;5.318;2024-03-23T05:11:41;101022.16;;;15.24;51.90
84918;BME280;75182;51.736;5.318;2024-03-23T05:21:42;101017.63;;;15.23;51.56
84918;BME280;75182;51.736;5.318;2024-03-23T05:31:42;101022.16;;;15.24;49.83
84918;BME280;75182;51.736;5.318;2024-03-23T05:41:43;101033.81;;;15.23;48.50
84918;BME280;75182;51.736;5.318;2024-03-23T05:51:44;101040.19;;;15.17;47.75
84918;BME280;75182;51.736;5.318;2024-03-23T06:01:46;101033.03;;;15.11;48.80
84918;BME280;75182;51.736;5.318;2024-03-23T06:11:48;101034.84;;;15.09;50.30
84918;BME280;75182;51.736;5.318;2024-03-23T06:21:48;101032.13;;;15.09;49.17
84918;BME280;75182;51.736;5.318;2024-03-23T06:31:53;101036.69;;;15.03;49.40
84918;BME280;75182;51.736;5.318;2024-03-23T06:41:55;101035.78;;;15.02;48.29
84918;BME280;75182;51.736;5.318;2024-03-23T06:51:56;101033.09;;;14.98;48.40
84918;BME280;75182;51.736;5.318;2024-03-23T07:01:57;101037.63;;;14.94;48.07
84918;BME280;75182;51.736;5.318;2024-03-23T07:11:57;101034.97;;;14.88;48.06
84918;BME280;75182;51.736;5.318;2024-03-23T07:21:57;101047.59;;;14.84;47.41
84918;BME280;75182;51.736;5.318;2024-03-23T07:31:58;101032.38;;;14.71;47.95
84918;BME280;75182;51.736;5.318;2024-03-23T07:41:58;101029.69;;;14.74;47.70
84918;BME280;75182;51.736;5.318;2024-03-23T07:51:58;101034.22;;;14.68;47.81
84918;BME280;75182;51.736;5.318;2024-03-23T08:01:58;101044.09;;;14.67;46.61
84918;BME280;75182;51.736;5.318;2024-03-23T08:11:59;101041.41;;;14.64;47.52
84918;BME280;75182;51.736;5.318;2024-03-23T08:22:00;101028.84;;;14.62;47.22
84918;BME280;75182;51.736;5.318;2024-03-23T08:32:00;101026.16;;;14.57;46.45
84918;BME280;75182;51.736;5.318;2024-03-23T08:42:01;101039.63;;;14.57;46.96
84918;BME280;75182;51.736;5.318;2024-03-23T08:52:01;101042.38;;;14.45;45.76
84918;BME280;75182;51.736;5.318;2024-03-23T09:02:01;101046.91;;;14.46;46.20
84918;BME280;75182;51.736;5.318;2024-03-23T09:12:02;101034.28;;;14.48;48.25
84918;BME280;75182;51.736;5.318;2024-03-23T09:22:02;101017.19;;;14.49;49.42
84918;BME280;75182;51.736;5.318;2024-03-23T09:32:03;101019.03;;;14.50;47.92
84918;BME280;75182;51.736;5.318;2024-03-23T09:42:04;101012.69;;;14.52;47.97
84918;BME280;75182;51.736;5.318;2024-03-23T09:52:06;101001.94;;;14.42;45.74
84918;BME280;75182;51.736;5.318;2024-03-23T10:02:07;101008.22;;;14.47;47.41
84918;BME280;75182;51.736;5.318;2024-03-23T10:12:12;101014.50;;;14.49;44.63
84918;BME280;75182;51.736;5.318;2024-03-23T10:22:17;101010.00;;;14.48;45.87
84918;BME280;75182;51.736;5.318;2024-03-23T10:32:18;101014.50;;;14.41;45.25
84918;BME280;75182;51.736;5.318;2024-03-23T10:42:18;101004.59;;;14.45;45.10
84918;BME280;75182;51.736;5.318;2024-03-23T10:52:19;100993.81;;;14.48;45.15
84918;BME280;75182;51.736;5.318;2024-03-23T11:02:20;100997.44;;;14.44;45.63
84918;BME280;75182;51.736;5.318;2024-03-23T11:32:40;101028.03;;;14.32;44.07
84918;BME280;75182;51.736;5.318;2024-03-23T11:42:41;101014.56;;;14.34;44.28
84918;BME280;75182;51.736;5.318;2024-03-23T11:52:41;100984.84;;;14.40;45.79
84918;BME280;75182;51.736;5.318;2024-03-23T12:02:41;100988.44;;;14.45;45.08
84918;BME280;75182;51.736;5.318;2024-03-23T12:12:41;100963.28;;;14.46;45.04
84918;BME280;75182;51.736;5.318;2024-03-23T12:22:42;100965.06;;;14.44;43.70
84918;BME280;75182;51.736;5.318;2024-03-23T12:32:42;100963.28;;;14.43;42.90
84918;BME280;75182;51.736;5.318;2024-03-23T12:42:43;100948.91;;;14.42;43.03
84918;BME280;75182;51.736;5.318;2024-03-23T12:52:43;100986.63;;;14.51;44.21
84918;BME280;75182;51.736;5.318;2024-03-23T13:02:44;100973.09;;;14.57;44.88
84918;BME280;75182;51.736;5.318;2024-03-23T13:12:44;100952.38;;;14.64;44.31
84918;BME280;75182;51.736;5.318;2024-03-23T13:22:44;100968.56;;;14.63;42.51
84918;BME280;75182;51.736;5.318;2024-03-23T13:32:47;100953.28;;;14.63;42.29
84918;BME280;75182;51.736;5.318;2024-03-23T13:42:47;100939.75;;;14.69;43.31
84918;BME280;75182;51.736;5.318;2024-03-23T13:52:48;100938.81;;;14.75;45.55
84918;BME280;75182;51.736;5.318;2024-03-23T14:02:48;100921.66;;;14.80;46.63
84918;BME280;75182;51.736;5.318;2024-03-23T14:12:49;100885.63;;;14.88;45.41
84918;BME280;75182;51.736;5.318;2024-03-23T14:22:49;100894.63;;;14.88;43.81
84918;BME280;75182;51.736;5.318;2024-03-23T14:32:50;100883.88;;;14.80;40.59
84918;BME280;75182;51.736;5.318;2024-03-23T14:42:51;100922.63;;;14.76;40.34
84918;BME280;75182;51.736;5.318;2024-03-23T14:52:51;100931.63;;;14.72;40.71
84918;BME280;75182;51.736;5.318;2024-03-23T15:02:51;100917.19;;;14.79;41.82
84918;BME280;75182;51.736;5.318;2024-03-23T15:12:52;100902.75;;;14.82;42.06
84918;BME280;75182;51.736;5.318;2024-03-23T15:22:53;100906.38;;;14.81;41.84
84918;BME280;75182;51.736;5.318;2024-03-23T15:32:53;100923.50;;;14.78;41.42
84918;BME280;75182;51.736;5.318;2024-03-23T15:42:53;100904.59;;;14.80;42.27
84918;BME280;75182;51.736;5.318;2024-03-23T15:52:54;100903.72;;;14.73;42.16
84918;BME280;75182;51.736;5.318;2024-03-23T16:02:55;100883.06;;;14.72;41.63
84918;BME280;75182;51.736;5.318;2024-03-23T16:12:56;100886.66;;;14.73;41.45
84918;BME280;75182;51.736;5.318;2024-03-23T16:22:56;100872.25;;;14.72;41.71
84918;BME280;75182;51.736;5.318;2024-03-23T16:32:56;100864.22;;;14.69;41.14
84918;BME280;75182;51.736;5.318;2024-03-23T16:42:58;100853.41;;;14.69;43.53
84918;BME280;75182;51.736;5.318;2024-03-23T16:52:58;100832.69;;;14.71;43.08
84918;BME280;75182;51.736;5.318;2024-03-23T17:02:58;100833.56;;;14.76;45.95
84918;BME280;75182;51.736;5.318;2024-03-23T17:12:59;100824.50;;;14.82;45.98
84918;BME280;75182;51.736;5.318;2024-03-23T17:23:00;100827.16;;;14.86;47.30
84918;BME280;75182;51.736;5.318;2024-03-23T17:33:01;100828.94;;;14.89;48.14
84918;BME280;75182;51.736;5.318;2024-03-23T17:43:02;100836.06;;;14.96;47.46
84918;BME280;75182;51.736;5.318;2024-03-23T17:53:04;100828.88;;;14.97;48.08
84918;BME280;75182;51.736;5.318;2024-03-23T18:03:04;100818.97;;;14.99;48.58
84918;BME280;75182;51.736;5.318;2024-03-23T18:13:05;100820.75;;;14.98;48.44
84918;BME280;75182;51.736;5.318;2024-03-23T18:23:06;100819.88;;;14.99;48.51
84918;BME280;75182;51.736;5.318;2024-03-23T18:33:06;100805.44;;;15.02;46.80
84918;BME280;75182;51.736;5.318;2024-03-23T18:43:07;100807.22;;;15.01;47.41
84918;BME280;75182;51.736;5.318;2024-03-23T18:53:08;100815.34;;;15.00;46.66
84918;BME280;75182;51.736;5.318;2024-03-23T19:03:09;100804.56;;;14.97;46.32
84918;BME280;75182;51.736;5.318;2024-03-23T19:13:10;100800.97;;;14.96;46.63
84918;BME280;75182;51.736;5.318;2024-03-23T19:23:10;100806.41;;;14.95;47.00
84918;BME280;75182;51.736;5.318;2024-03-23T19:33:10;100806.44;;;14.92;46.81
84918;BME280;75182;51.736;5.318;2024-03-23T19:43:11;100802.91;;;14.85;46.22
84918;BME280;75182;51.736;5.318;2024-03-23T19:53:11;100790.38;;;14.78;47.15
84918;BME280;75182;51.736;5.318;2024-03-23T20:03:11;100791.22;;;14.81;46.09
84918;BME280;75182;51.736;5.318;2024-03-23T20:13:12;100783.22;;;14.75;47.21
84918;BME280;75182;51.736;5.318;2024-03-23T20:23:12;100787.72;;;14.73;48.29
84918;BME280;75182;51.736;5.318;2024-03-23T20:33:12;100781.44;;;14.71;47.04
84918;BME280;75182;51.736;5.318;2024-03-23T20:43:13;100778.78;;;14.68;48.57
84918;BME280;75182;51.736;5.318;2024-03-23T20:53:14;100768.88;;;14.69;48.65
84918;BME280;75182;51.736;5.318;2024-03-23T21:03:14;100767.97;;;14.70;48.37
84918;BME280;75182;51.736;5.318;2024-03-23T21:13:14;100757.19;;;14.68;48.75
84918;BME280;75182;51.736;5.318;2024-03-23T21:23:15;100758.97;;;14.69;48.97
84918;BME280;75182;51.736;5.318;2024-03-23T21:33:16;100741.94;;;14.67;48.81
84918;BME280;75182;51.736;5.318;2024-03-23T21:43:16;100728.44;;;14.67;49.12
84918;BME280;75182;51.736;5.318;2024-03-23T21:53:16;100738.31;;;14.68;48.93
84918;BME280;75182;51.736;5.318;2024-03-23T22:03:18;100696.97;;;14.63;48.38
84918;BME280;75182;51.736;5.318;2024-03-23T22:13:19;100700.56;;;14.65;49.18
84918;BME280;75182;51.736;5.318;2024-03-23T22:23:20;100684.38;;;14.65;48.89
84918;BME280;75182;51.736;5.318;2024-03-23T22:33:20;100650.22;;;14.64;49.26
84918;BME280;75182;51.736;5.318;2024-03-23T22:43:21;100639.44;;;14.63;48.65
84918;BME280;75182;51.736;5.318;2024-03-23T22:53:22;100605.31;;;14.57;47.73
84918;BME280;75182;51.736;5.318;2024-03-23T23:03:23;100605.31;;;14.57;49.40
84918;BME280;75182;51.736;5.318;2024-03-23T23:13:23;100601.75;;;14.56;48.58
84918;BME280;75182;51.736;5.318;2024-03-23T23:23:24;100590.06;;;14.56;49.43
84918;BME280;75182;51.736;5.318;2024-03-23T23:33:24;100584.72;;;14.53;49.76
84918;BME280;75182;51.736;5.318;2024-03-23T23:43:24;100574.84;;;14.52;49.44
84918;BME280;75182;51.736;5.318;2024-03-23T23:53:25;100564.06;;;14.52;49.52
